createdAt,value
2018-12-06T00:09:18.476Z,4.00
2018-12-06T00:15:07.316Z,4.00
2018-12-06T00:17:34.990Z,4.00
2018-12-06T00:20:06.235Z,4.00
2018-12-06T00:22:33.853Z,4.10
2018-12-06T00:31:27.319Z,4.10
2018-12-06T00:33:55.076Z,4.10
2018-12-06T00:36:23.046Z,4.10
2018-12-06T00:38:50.860Z,4.20
2018-12-06T00:41:18.685Z,4.20
2018-12-06T00:43:46.589Z,4.20
2018-12-06T00:46:37.015Z,4.20
2018-12-06T00:49:04.792Z,4.20
2018-12-06T00:51:32.885Z,4.20
2018-12-06T00:54:00.711Z,4.20
2018-12-06T00:56:28.544Z,4.20
2018-12-06T00:58:56.370Z,4.20
2018-12-06T01:01:24.451Z,4.20
2018-12-06T01:04:10.618Z,4.20
2018-12-06T01:06:38.333Z,4.20
2018-12-06T01:09:06.202Z,4.20
2018-12-06T01:11:33.830Z,4.30
2018-12-06T01:14:01.696Z,4.30
2018-12-06T01:16:31.598Z,4.30
2018-12-06T01:18:59.398Z,4.30
2018-12-06T01:21:27.051Z,4.30
2018-12-06T01:23:54.735Z,4.30
2018-12-06T01:26:22.516Z,4.30
2018-12-06T01:28:50.009Z,4.30
2018-12-06T01:31:17.720Z,4.30
2018-12-06T01:33:45.208Z,4.30
2018-12-06T01:36:12.872Z,4.30
2018-12-06T01:38:40.512Z,4.30
2018-12-06T01:41:08.098Z,4.30
2018-12-06T01:43:35.814Z,4.30
2018-12-06T01:46:03.590Z,4.30
2018-12-06T01:48:31.567Z,4.20
2018-12-06T01:50:59.079Z,4.20
2018-12-06T01:53:26.657Z,4.20
2018-12-06T01:55:54.210Z,4.20
2018-12-06T01:58:21.763Z,4.30
2018-12-06T02:00:49.455Z,4.30
2018-12-06T02:03:17.145Z,4.30
2018-12-06T02:05:44.897Z,4.30
2018-12-06T02:08:12.612Z,4.30
2018-12-06T02:10:40.157Z,4.30
2018-12-06T02:13:07.740Z,4.30
2018-12-06T02:15:35.290Z,4.30
2018-12-06T02:18:03.001Z,4.30
2018-12-06T02:20:30.656Z,4.30
2018-12-06T02:22:58.217Z,4.30
2018-12-06T02:25:25.806Z,4.30
2018-12-06T02:27:53.369Z,4.30
2018-12-06T02:30:21.241Z,4.30
2018-12-06T02:32:48.874Z,4.30
2018-12-06T02:35:16.435Z,4.30
2018-12-06T02:37:44.108Z,4.30
2018-12-06T02:40:11.961Z,4.30
2018-12-06T02:42:39.654Z,4.30
2018-12-06T02:45:07.355Z,4.30
2018-12-06T02:47:35.012Z,4.30
2018-12-06T02:50:02.657Z,4.30
2018-12-06T02:52:30.154Z,4.30
2018-12-06T02:54:57.689Z,4.30
2018-12-06T02:57:25.276Z,4.30
2018-12-06T02:59:52.982Z,4.30
2018-12-06T03:02:20.632Z,4.30
2018-12-06T03:04:48.481Z,4.30
2018-12-06T03:07:16.208Z,4.30
2018-12-06T03:09:46.173Z,4.30
2018-12-06T03:12:13.191Z,4.30
2018-12-06T03:14:40.640Z,4.30
2018-12-06T03:17:08.385Z,4.40
2018-12-06T03:19:36.155Z,4.40
2018-12-06T03:22:03.829Z,4.40
2018-12-06T03:24:31.366Z,4.40
2018-12-06T03:26:59.123Z,4.40
2018-12-06T03:29:26.786Z,4.50
2018-12-06T03:31:54.547Z,4.50
2018-12-06T03:34:22.139Z,4.50
2018-12-06T03:36:49.753Z,4.50
2018-12-06T03:39:17.415Z,4.50
2018-12-06T03:41:45.099Z,4.60
2018-12-06T03:44:12.773Z,4.60
2018-12-06T03:46:41.468Z,4.60
2018-12-06T03:49:09.050Z,4.60
2018-12-06T03:51:36.687Z,4.60
2018-12-06T03:54:05.508Z,4.60
2018-12-06T03:56:33.297Z,4.60
2018-12-06T03:59:00.862Z,4.60
2018-12-06T04:01:28.475Z,4.60
2018-12-06T04:03:56.060Z,4.60
2018-12-06T04:06:23.791Z,4.60
2018-12-06T04:08:51.362Z,4.60
2018-12-06T04:11:18.889Z,4.70
2018-12-06T04:13:46.528Z,4.70
2018-12-06T04:16:13.984Z,4.70
2018-12-06T04:18:41.376Z,4.70
2018-12-06T04:21:09.088Z,4.70
2018-12-06T04:23:36.557Z,4.70
2018-12-06T04:26:04.331Z,4.70
2018-12-06T04:28:32.103Z,4.70
2018-12-06T04:30:59.777Z,4.70
2018-12-06T04:33:27.462Z,4.70
2018-12-06T04:35:55.057Z,4.70
2018-12-06T04:38:22.573Z,4.70
2018-12-06T04:40:50.095Z,4.70
2018-12-06T04:43:17.833Z,4.80
2018-12-06T04:45:45.406Z,4.80
2018-12-06T04:48:12.835Z,4.80
2018-12-06T04:50:40.333Z,4.80
2018-12-06T04:53:07.998Z,4.80
2018-12-06T04:55:35.846Z,4.80
2018-12-06T04:58:03.407Z,4.80
2018-12-06T05:00:31.051Z,4.80
2018-12-06T05:02:58.658Z,4.80
2018-12-06T05:05:26.194Z,4.80
2018-12-06T05:07:53.774Z,4.80
2018-12-06T05:10:21.331Z,4.90
2018-12-06T05:12:49.106Z,4.90
2018-12-06T05:15:16.557Z,4.90
2018-12-06T05:17:44.203Z,4.90
2018-12-06T05:20:11.833Z,4.90
2018-12-06T05:22:39.581Z,4.90
2018-12-06T05:25:07.189Z,4.90
2018-12-06T05:27:35.409Z,4.90
2018-12-06T05:30:03.600Z,5.00
2018-12-06T05:32:31.406Z,5.00
2018-12-06T05:34:59.149Z,5.00
2018-12-06T05:37:27.108Z,5.00
2018-12-06T05:39:54.924Z,5.00
2018-12-06T05:42:22.735Z,5.00
2018-12-06T05:44:51.949Z,5.00
2018-12-06T05:47:19.759Z,5.10
2018-12-06T05:49:47.637Z,5.10
2018-12-06T05:52:15.285Z,5.20
2018-12-06T05:54:42.808Z,5.20
2018-12-06T05:57:10.319Z,5.20
2018-12-06T05:59:38.301Z,5.20
2018-12-06T06:02:06.355Z,5.30
2018-12-06T06:04:34.458Z,5.30
2018-12-06T06:07:02.280Z,5.30
2018-12-06T06:09:31.115Z,5.30
2018-12-06T06:11:59.162Z,5.30
2018-12-06T06:14:26.914Z,5.40
2018-12-06T06:16:56.845Z,5.40
2018-12-06T06:19:43.857Z,5.40
2018-12-06T06:22:11.682Z,5.40
2018-12-06T06:24:39.939Z,5.50
2018-12-06T06:27:18.601Z,5.50
2018-12-06T06:30:07.190Z,5.50
2018-12-06T06:35:44.361Z,5.60
2018-12-06T06:38:26.208Z,5.50
2018-12-06T06:41:12.006Z,5.60
2018-12-06T06:43:58.784Z,5.60
2018-12-06T06:49:45.716Z,5.60
2018-12-06T06:55:33.486Z,5.70
2018-12-06T07:01:20.292Z,5.70
2018-12-06T07:04:05.283Z,5.80
2018-12-06T07:32:34.767Z,5.90
2018-12-06T07:38:24.164Z,5.90
2018-12-06T07:56:24.449Z,6.00
2018-12-06T07:58:52.775Z,6.00
2018-12-06T08:01:20.758Z,6.00
2018-12-06T08:03:48.753Z,6.00
2018-12-06T08:06:16.562Z,6.00
2018-12-06T08:08:44.477Z,6.00
2018-12-06T08:11:12.487Z,6.10
2018-12-06T08:13:40.365Z,6.10
2018-12-06T08:16:08.251Z,6.10
2018-12-06T08:18:36.278Z,6.10
2018-12-06T08:21:04.468Z,6.10
2018-12-06T08:23:32.387Z,6.20
2018-12-06T08:26:00.180Z,6.20
2018-12-06T08:28:28.142Z,6.20
2018-12-06T08:30:56.139Z,6.20
2018-12-06T08:33:24.138Z,6.30
2018-12-06T08:35:52.157Z,6.30
2018-12-06T08:38:20.034Z,6.30
2018-12-06T08:40:48.144Z,6.40
2018-12-06T08:43:16.039Z,6.40
2018-12-06T08:46:00.415Z,6.40
2018-12-06T08:48:28.386Z,6.50
2018-12-06T08:50:56.464Z,6.50
2018-12-06T08:53:25.095Z,6.50
2018-12-06T08:55:53.236Z,6.50
2018-12-06T08:58:21.246Z,6.60
2018-12-06T09:00:49.182Z,6.60
2018-12-06T09:03:17.135Z,6.70
2018-12-06T09:05:45.070Z,6.70
2018-12-06T09:08:13.206Z,6.70
2018-12-06T09:10:42.461Z,6.70
2018-12-06T09:13:10.823Z,6.80
2018-12-06T09:15:38.712Z,6.80
2018-12-06T09:18:06.849Z,6.80
2018-12-06T09:20:35.179Z,6.90
2018-12-06T09:26:25.210Z,7.00
2018-12-06T09:28:53.196Z,7.10
2018-12-06T09:31:32.866Z,7.10
2018-12-06T09:34:06.911Z,7.10
2018-12-06T09:36:36.188Z,7.10
2018-12-06T09:39:07.783Z,7.20
2018-12-06T09:41:37.190Z,7.20
2018-12-06T09:44:05.082Z,7.20
2018-12-06T09:46:33.820Z,7.30
2018-12-06T09:49:03.345Z,7.40
2018-12-06T09:51:32.723Z,7.40
2018-12-06T09:54:01.061Z,7.40
2018-12-06T09:56:29.031Z,7.40
2018-12-06T09:58:57.223Z,7.40
2018-12-06T10:10:31.834Z,7.60
2018-12-06T10:15:53.013Z,7.70
2018-12-06T10:18:20.938Z,7.80
2018-12-06T10:20:48.971Z,7.80
2018-12-06T10:23:16.901Z,7.80
2018-12-06T10:26:05.490Z,7.90
2018-12-06T10:28:35.638Z,7.90
2018-12-06T10:34:24.955Z,8.00
2018-12-06T10:37:15.469Z,8.00
2018-12-06T10:40:02.104Z,8.00
2018-12-06T10:42:30.164Z,8.10
2018-12-06T10:45:14.053Z,8.00
2018-12-06T10:47:42.400Z,8.00
2018-12-06T10:50:10.587Z,8.00
2018-12-06T10:52:38.897Z,8.00
2018-12-06T10:55:06.891Z,8.00
2018-12-06T11:00:39.340Z,7.90
2018-12-06T11:03:13.623Z,8.00
2018-12-06T11:05:41.733Z,8.10
2018-12-06T11:08:10.089Z,8.10
2018-12-06T11:32:14.723Z,8.30
2018-12-06T12:02:30.477Z,8.60
2018-12-06T12:44:53.319Z,9.00
2018-12-06T12:47:21.209Z,9.00
2018-12-06T12:49:49.251Z,9.00
2018-12-06T12:52:17.473Z,9.00
2018-12-06T12:54:45.712Z,9.00
2018-12-06T12:57:14.174Z,9.00
2018-12-06T12:59:42.511Z,9.00
2018-12-06T13:32:58.500Z,9.30
2018-12-06T13:35:27.464Z,9.30
2018-12-06T13:37:55.625Z,9.30
2018-12-06T13:40:23.839Z,9.30
2018-12-06T13:42:52.082Z,9.30
2018-12-06T13:45:20.096Z,9.30
2018-12-06T13:47:48.224Z,9.40
2018-12-06T13:50:16.361Z,9.40
2018-12-06T13:52:44.224Z,9.40
2018-12-06T13:55:12.822Z,9.40
2018-12-06T13:57:40.782Z,9.40
2018-12-06T14:00:37.082Z,9.40
2018-12-06T14:03:05.055Z,9.40
2018-12-06T14:05:33.021Z,9.50
2018-12-06T14:08:00.830Z,9.50
2018-12-06T14:10:28.539Z,9.50
2018-12-06T14:12:56.121Z,9.50
2018-12-06T14:15:23.908Z,9.50
2018-12-06T14:17:55.979Z,9.50
2018-12-06T14:20:24.127Z,9.60
2018-12-06T14:22:57.506Z,9.60
2018-12-06T14:25:25.283Z,9.60
2018-12-06T14:27:53.572Z,9.60
2018-12-06T14:30:21.230Z,9.60
2018-12-06T14:32:49.023Z,9.70
2018-12-06T14:35:16.882Z,9.70
2018-12-06T14:37:44.723Z,9.70
2018-12-06T14:40:12.971Z,9.70
2018-12-06T14:42:40.877Z,9.70
2018-12-06T14:45:08.850Z,9.70
2018-12-06T14:47:36.630Z,9.70
2018-12-06T14:50:05.023Z,9.80
2018-12-06T14:52:32.725Z,9.80
2018-12-06T14:55:00.262Z,9.80
2018-12-06T14:57:27.835Z,9.80
2018-12-06T14:59:55.331Z,9.90
2018-12-06T15:02:22.987Z,9.90
2018-12-06T15:04:50.601Z,9.90
2018-12-06T15:07:18.131Z,9.90
2018-12-06T15:09:45.702Z,10.00
2018-12-06T15:12:13.568Z,10.00
2018-12-06T15:14:41.360Z,10.00
2018-12-06T15:17:09.272Z,10.00
2018-12-06T17:15:48.714Z,10.50
2018-12-06T17:18:26.973Z,10.50
2018-12-06T17:36:00.999Z,10.50
2018-12-06T17:38:28.701Z,10.60
2018-12-06T17:40:56.611Z,10.50
2018-12-06T17:43:24.316Z,10.50
2018-12-06T17:45:51.998Z,10.60
2018-12-06T17:48:19.830Z,10.60
2018-12-06T17:50:47.661Z,10.50
2018-12-06T17:53:15.537Z,10.60
2018-12-06T17:55:54.456Z,10.60
2018-12-06T17:58:22.339Z,10.60
2018-12-06T18:00:50.166Z,10.50
2018-12-06T18:03:17.835Z,10.50
2018-12-06T18:05:45.687Z,10.50
2018-12-06T18:08:13.327Z,10.60
2018-12-06T18:10:41.307Z,10.50
2018-12-06T18:13:10.277Z,10.50
2018-12-06T18:15:39.000Z,10.60
2018-12-06T18:18:06.835Z,10.50
2018-12-06T18:20:35.811Z,10.60
2018-12-06T18:23:04.201Z,10.60
2018-12-06T18:25:32.264Z,10.60
2018-12-06T18:28:00.039Z,10.60
2018-12-06T18:30:27.957Z,10.60
2018-12-06T18:32:55.725Z,10.60
2018-12-06T18:35:23.633Z,10.60
2018-12-06T18:37:51.700Z,10.60
2018-12-06T18:40:19.674Z,10.70
2018-12-06T18:42:47.638Z,10.60
2018-12-06T18:45:15.292Z,10.60
2018-12-06T18:47:43.403Z,10.70
2018-12-06T18:50:11.604Z,10.60
2018-12-06T18:52:39.683Z,10.60
2018-12-06T18:55:07.839Z,10.60
2018-12-06T18:57:55.665Z,10.60
2018-12-06T19:00:37.097Z,10.60
2018-12-06T19:03:33.967Z,10.60
2018-12-06T21:31:26.139Z,10.70
2018-12-06T21:33:54.089Z,10.70
2018-12-06T21:36:22.054Z,10.70
2018-12-06T21:38:50.030Z,10.80
2018-12-06T21:41:17.821Z,10.80
2018-12-06T21:43:45.988Z,10.80
2018-12-06T21:46:13.820Z,10.80
2018-12-06T21:48:41.670Z,10.80
2018-12-06T21:51:09.457Z,10.80
2018-12-06T21:53:37.384Z,10.80
2018-12-06T21:56:05.878Z,10.80
2018-12-06T21:58:33.751Z,10.80
2018-12-06T22:01:02.603Z,10.80
2018-12-06T22:03:30.549Z,10.90
2018-12-06T22:05:58.484Z,10.90
2018-12-06T22:08:26.175Z,10.90
2018-12-06T22:29:30.808Z,11.00
2018-12-06T22:32:14.561Z,11.00
2018-12-06T22:38:03.430Z,11.00
2018-12-06T22:40:48.566Z,11.00
2018-12-06T23:01:39.378Z,11.10
2018-12-06T23:04:23.255Z,11.20
2018-12-06T23:10:14.387Z,11.20
2018-12-06T23:16:03.229Z,11.10
2018-12-06T23:21:52.381Z,11.20
2018-12-06T23:24:40.065Z,11.20
2018-12-06T23:36:32.251Z,11.20
2018-12-06T23:39:18.801Z,11.20
2018-12-06T23:42:02.804Z,11.20
2018-12-06T23:50:57.154Z,11.20
